createdAt,value
2022-12-18T00:02:06.471Z,38.40
2022-12-18T00:04:34.292Z,38.83
2022-12-18T00:07:03.206Z,37.83
2022-12-18T00:09:40.069Z,38.73
2022-12-18T00:14:46.510Z,40.47
2022-12-18T00:17:14.210Z,41.03
2022-12-18T00:19:41.742Z,38.93
2022-12-18T00:22:09.472Z,35.70
2022-12-18T00:24:37.031Z,39.80
2022-12-18T00:27:04.772Z,40.20
2022-12-18T00:29:32.535Z,38.67
2022-12-18T00:32:00.209Z,39.37
2022-12-18T00:34:27.904Z,43.57
2022-12-18T00:36:55.428Z,40.10
2022-12-18T00:39:24.382Z,37.50
2022-12-18T00:42:11.383Z,39.43
2022-12-18T00:44:38.957Z,34.53
2022-12-18T00:47:06.594Z,35.30
2022-12-18T00:49:41.094Z,35.73
2022-12-18T00:52:09.558Z,35.80
2022-12-18T00:54:37.219Z,36.67
2022-12-18T00:57:04.854Z,38.20
2022-12-18T00:59:40.527Z,34.40
2022-12-18T01:02:08.833Z,35.43
2022-12-18T01:04:36.762Z,35.77
2022-12-18T01:07:04.440Z,35.47
2022-12-18T01:09:34.135Z,33.20
2022-12-18T01:12:02.090Z,35.77
2022-12-18T01:14:31.453Z,36.67
2022-12-18T01:17:00.352Z,33.87
2022-12-18T01:19:27.883Z,31.83
2022-12-18T01:21:56.024Z,32.80
2022-12-18T01:24:23.671Z,34.77
2022-12-18T01:26:51.263Z,33.43
2022-12-18T01:29:18.909Z,31.17
2022-12-18T01:31:46.534Z,34.37
2022-12-18T01:34:14.780Z,32.63
2022-12-18T01:36:45.201Z,32.10
2022-12-18T01:39:15.901Z,30.47
2022-12-18T01:42:02.628Z,32.20
2022-12-18T01:45:17.391Z,30.20
2022-12-18T01:48:09.969Z,28.03
2022-12-18T01:50:44.064Z,29.50
2022-12-18T01:53:24.728Z,31.23
2022-12-18T01:56:00.343Z,30.80
2022-12-18T01:59:06.685Z,29.67
2022-12-18T02:01:35.766Z,26.77
2022-12-18T02:04:28.596Z,28.30
2022-12-18T02:07:49.889Z,26.93
2022-12-18T02:10:43.696Z,23.73
2022-12-18T02:13:59.237Z,28.63
2022-12-18T02:16:58.598Z,29.00
2022-12-18T02:20:10.489Z,32.93
2022-12-18T02:23:34.900Z,29.00
2022-12-18T02:26:31.965Z,28.70
2022-12-18T02:30:08.325Z,27.50
2022-12-18T02:32:51.728Z,27.43
2022-12-18T02:35:31.356Z,25.07
2022-12-18T02:38:04.186Z,25.83
2022-12-18T02:40:37.207Z,27.00
2022-12-18T02:43:14.468Z,26.57
2022-12-18T02:46:01.714Z,26.90
2022-12-18T02:48:36.498Z,24.37
2022-12-18T02:51:44.528Z,21.80
2022-12-18T02:55:02.103Z,23.13
2022-12-18T02:58:27.580Z,20.83
2022-12-18T03:02:02.513Z,21.97
2022-12-18T03:04:55.281Z,20.20
2022-12-18T03:07:57.854Z,20.17
2022-12-18T03:10:40.165Z,17.80
2022-12-18T03:13:24.475Z,19.40
2022-12-18T03:16:00.148Z,18.20
2022-12-18T03:18:49.420Z,18.80
2022-12-18T03:21:31.429Z,18.60
2022-12-18T03:24:04.697Z,16.73
2022-12-18T03:26:35.715Z,17.10
2022-12-18T03:29:28.845Z,18.10
2022-12-18T03:32:12.847Z,17.70
2022-12-18T03:34:45.089Z,13.90
2022-12-18T03:37:15.209Z,15.73
2022-12-18T03:39:50.669Z,17.57
2022-12-18T03:42:57.478Z,17.33
2022-12-18T03:45:42.980Z,15.83
2022-12-18T03:48:42.887Z,15.10
2022-12-18T03:51:58.882Z,16.90
2022-12-18T03:54:31.211Z,14.47
2022-12-18T03:57:29.033Z,16.17
2022-12-18T04:00:17.883Z,15.37
2022-12-18T04:03:05.694Z,16.60
2022-12-18T04:05:45.098Z,13.80
2022-12-18T04:08:15.132Z,14.70
2022-12-18T04:10:49.971Z,14.70
2022-12-18T04:13:37.429Z,16.50
2022-12-18T04:16:10.606Z,14.77
2022-12-18T04:18:41.851Z,16.20
2022-12-18T04:21:11.372Z,13.70
2022-12-18T04:23:40.200Z,14.40
2022-12-18T04:26:08.557Z,15.90
2022-12-18T04:28:54.478Z,15.20
2022-12-18T04:31:23.020Z,14.17
2022-12-18T04:33:51.245Z,14.60
2022-12-18T04:36:18.957Z,15.50
2022-12-18T04:38:47.650Z,14.87
2022-12-18T04:41:17.516Z,13.70
2022-12-18T04:43:48.232Z,13.53
2022-12-18T04:46:16.028Z,14.30
2022-12-18T04:48:46.945Z,12.40
2022-12-18T04:51:15.471Z,14.33
2022-12-18T04:53:43.257Z,14.00
2022-12-18T04:56:16.812Z,13.23
2022-12-18T04:58:46.312Z,15.77
2022-12-18T05:01:18.991Z,13.43
2022-12-18T05:03:46.979Z,12.90
2022-12-18T05:06:15.012Z,13.93
2022-12-18T05:08:45.751Z,14.20
2022-12-18T05:11:16.844Z,13.40
2022-12-18T05:13:48.078Z,13.27
2022-12-18T05:16:16.781Z,16.23
2022-12-18T05:18:45.269Z,15.77
2022-12-18T05:21:13.418Z,14.67
2022-12-18T05:23:41.458Z,15.67
2022-12-18T05:26:10.016Z,16.60
2022-12-18T05:28:38.176Z,16.27
2022-12-18T05:31:07.318Z,16.30
2022-12-18T05:33:36.987Z,13.83
2022-12-18T05:36:10.838Z,16.57
2022-12-18T05:38:40.705Z,15.90
2022-12-18T05:41:10.535Z,16.50
2022-12-18T05:43:42.608Z,13.33
2022-12-18T05:46:18.885Z,14.50
2022-12-18T05:48:47.878Z,14.97
2022-12-18T05:51:22.351Z,15.00
2022-12-18T05:53:50.490Z,13.63
2022-12-18T05:56:23.872Z,14.67
2022-12-18T05:58:57.213Z,14.00
2022-12-18T06:01:28.041Z,12.77
2022-12-18T06:03:57.195Z,12.23
2022-12-18T06:06:28.917Z,13.97
2022-12-18T06:08:58.632Z,12.70
2022-12-18T06:11:28.405Z,13.40
2022-12-18T06:13:59.590Z,13.20
2022-12-18T06:16:31.025Z,14.03
2022-12-18T06:19:02.441Z,13.97
2022-12-18T06:21:31.368Z,14.13
2022-12-18T06:24:01.000Z,13.93
2022-12-18T06:26:28.867Z,14.30
2022-12-18T06:28:57.168Z,11.93
2022-12-18T06:31:26.391Z,13.73
2022-12-18T06:33:54.361Z,14.80
2022-12-18T06:36:22.585Z,12.27
2022-12-18T06:38:50.600Z,12.90
2022-12-18T06:41:23.298Z,14.83
2022-12-18T06:43:53.570Z,12.50
2022-12-18T06:46:23.370Z,13.63
2022-12-18T06:48:51.985Z,12.70
2022-12-18T06:51:24.362Z,13.60
2022-12-18T06:53:52.230Z,14.50
2022-12-18T06:56:20.153Z,11.93
2022-12-18T06:58:47.814Z,13.80
2022-12-18T07:01:15.638Z,10.83
2022-12-18T07:03:45.254Z,13.53
2022-12-18T07:06:21.396Z,12.50
2022-12-18T07:08:51.789Z,11.97
2022-12-18T07:11:20.832Z,13.13
2022-12-18T07:13:48.642Z,12.13
2022-12-18T07:16:25.104Z,12.80
2022-12-18T07:18:56.308Z,12.70
2022-12-18T07:21:25.912Z,13.77
2022-12-18T07:23:53.971Z,12.20
2022-12-18T07:26:24.061Z,13.80
2022-12-18T07:28:56.381Z,14.00
2022-12-18T07:31:24.492Z,14.03
2022-12-18T07:33:53.933Z,14.60
2022-12-18T07:36:22.500Z,13.07
2022-12-18T07:38:53.004Z,13.20
2022-12-18T07:41:21.469Z,12.40
2022-12-18T07:43:50.063Z,13.63
2022-12-18T07:46:20.861Z,14.47
2022-12-18T07:48:50.086Z,12.57
2022-12-18T07:51:20.012Z,12.50
2022-12-18T07:53:49.544Z,14.17
2022-12-18T07:56:27.681Z,13.50
2022-12-18T07:58:57.459Z,13.33
2022-12-18T08:01:26.157Z,14.90
2022-12-18T08:03:54.099Z,13.13
2022-12-18T08:06:23.877Z,13.70
2022-12-18T08:08:58.226Z,13.23
2022-12-18T08:11:30.040Z,14.80
2022-12-18T08:13:58.970Z,14.57
2022-12-18T08:16:27.975Z,14.50
2022-12-18T08:18:56.144Z,15.70
2022-12-18T08:21:30.547Z,14.30
2022-12-18T08:24:02.779Z,13.67
2022-12-18T08:26:32.952Z,14.60
2022-12-18T08:29:01.878Z,12.90
2022-12-18T08:31:32.221Z,12.40
2022-12-18T08:34:00.319Z,12.60
2022-12-18T08:36:29.691Z,12.73
2022-12-18T08:38:58.667Z,13.17
2022-12-18T08:41:26.869Z,9.83
2022-12-18T08:44:22.276Z,10.00
2022-12-18T08:46:52.479Z,10.90
2022-12-18T08:49:20.160Z,10.10
2022-12-18T08:51:47.681Z,9.80
2022-12-18T08:54:15.475Z,8.47
2022-12-18T08:56:43.152Z,7.70
2022-12-18T08:59:17.306Z,9.93
2022-12-18T09:01:49.015Z,8.23
2022-12-18T09:04:17.371Z,7.47
2022-12-18T09:06:44.966Z,8.33
2022-12-18T09:09:13.052Z,8.33
2022-12-18T09:11:41.084Z,7.93
2022-12-18T09:14:10.673Z,9.77
2022-12-18T09:16:38.564Z,8.60
2022-12-18T09:19:07.114Z,12.50
2022-12-18T09:21:37.612Z,12.00
2022-12-18T09:24:07.319Z,21.87
2022-12-18T09:26:37.775Z,18.50
2022-12-18T09:29:08.346Z,10.10
2022-12-18T09:31:37.478Z,11.67
2022-12-18T09:34:05.164Z,9.40
2022-12-18T09:36:33.040Z,9.47
2022-12-18T09:39:03.862Z,11.37
2022-12-18T09:41:59.676Z,13.40
2022-12-18T09:44:50.012Z,12.83
2022-12-18T09:47:37.570Z,12.60
2022-12-18T09:50:39.809Z,13.90
2022-12-18T09:53:25.685Z,13.87
2022-12-18T09:55:58.756Z,16.07
2022-12-18T09:58:56.445Z,14.93
2022-12-18T10:01:34.061Z,11.30
2022-12-18T10:04:10.646Z,13.93
2022-12-18T10:07:35.965Z,12.57
2022-12-18T10:10:41.282Z,12.20
2022-12-18T10:13:42.374Z,12.30
2022-12-18T10:16:46.345Z,12.33
2022-12-18T10:20:11.659Z,11.37
2022-12-18T10:23:07.474Z,11.77
2022-12-18T10:25:48.386Z,11.03
2022-12-18T10:28:20.038Z,12.77
2022-12-18T10:30:49.089Z,12.30
2022-12-18T10:33:25.124Z,13.43
2022-12-18T10:35:54.084Z,13.37
2022-12-18T10:38:33.427Z,12.20
2022-12-18T10:41:26.931Z,11.20
2022-12-18T10:44:24.602Z,11.83
2022-12-18T10:47:12.222Z,11.57
2022-12-18T10:49:56.156Z,11.70
2022-12-18T10:52:28.700Z,12.97
2022-12-18T10:55:05.373Z,13.10
2022-12-18T10:57:42.673Z,13.33
2022-12-18T11:00:26.480Z,13.10
2022-12-18T11:02:57.014Z,15.77
2022-12-18T11:05:34.313Z,12.73
2022-12-18T11:08:04.145Z,14.17
2022-12-18T11:10:41.914Z,13.00
2022-12-18T11:13:23.412Z,13.83
2022-12-18T11:15:52.467Z,11.40
2022-12-18T11:18:40.547Z,11.80
2022-12-18T11:21:14.419Z,13.80
2022-12-18T11:23:55.616Z,13.20
2022-12-18T11:26:37.264Z,13.23
2022-12-18T11:29:24.906Z,9.80
2022-12-18T11:31:52.505Z,12.60
2022-12-18T11:34:33.819Z,11.03
2022-12-18T11:37:05.448Z,14.03
2022-12-18T11:40:16.583Z,10.70
2022-12-18T11:43:20.178Z,11.07
2022-12-18T11:46:17.711Z,10.80
2022-12-18T11:49:13.557Z,11.10
2022-12-18T11:52:32.018Z,12.87
2022-12-18T11:55:46.853Z,14.10
2022-12-18T11:58:49.167Z,10.53
2022-12-18T12:01:46.635Z,11.43
2022-12-18T12:05:06.383Z,10.97
2022-12-18T12:08:10.683Z,11.80
2022-12-18T12:11:08.203Z,13.17
2022-12-18T12:14:33.174Z,11.30
2022-12-18T12:17:38.251Z,9.80
2022-12-18T12:21:35.219Z,11.73
2022-12-18T12:24:59.926Z,13.13
2022-12-18T12:27:58.028Z,10.80
2022-12-18T12:31:34.892Z,12.10
2022-12-18T12:34:41.280Z,11.03
2022-12-18T12:37:43.075Z,12.83
2022-12-18T12:40:50.189Z,13.90
2022-12-18T12:43:51.632Z,13.43
2022-12-18T12:46:24.669Z,12.97
2022-12-18T12:49:02.566Z,12.20
2022-12-18T12:51:41.543Z,13.03
2022-12-18T12:54:29.417Z,11.87
2022-12-18T12:57:38.713Z,11.83
2022-12-18T13:00:20.408Z,12.13
2022-12-18T13:03:21.464Z,11.73
2022-12-18T13:06:06.271Z,12.40
2022-12-18T13:09:02.037Z,13.40
2022-12-18T13:12:08.258Z,15.00
2022-12-18T13:14:42.098Z,14.00
2022-12-18T13:17:21.761Z,12.53
2022-12-18T13:20:14.031Z,13.27
2022-12-18T13:22:51.331Z,12.97
2022-12-18T13:25:45.950Z,15.53
2022-12-18T13:28:17.626Z,14.33
2022-12-18T13:30:58.408Z,14.27
2022-12-18T13:36:36.252Z,14.33
2022-12-18T13:39:21.243Z,15.10
2022-12-18T13:42:35.810Z,17.00
2022-12-18T13:45:43.375Z,18.77
2022-12-18T13:48:27.272Z,17.60
2022-12-18T13:51:17.715Z,18.23
2022-12-18T13:54:25.515Z,16.67
2022-12-18T13:56:53.554Z,16.43
2022-12-18T13:59:39.405Z,18.33
2022-12-18T14:02:21.938Z,19.93
2022-12-18T14:04:52.363Z,18.10
2022-12-18T14:07:34.651Z,17.47
2022-12-18T14:13:16.112Z,19.57
2022-12-18T14:15:50.191Z,16.60
2022-12-18T14:18:50.843Z,15.10
2022-12-18T14:21:33.123Z,16.50
2022-12-18T14:24:19.395Z,15.23
2022-12-18T14:26:51.322Z,11.07
2022-12-18T14:29:32.578Z,11.87
2022-12-18T14:32:20.386Z,12.20
2022-12-18T14:34:55.472Z,12.23
2022-12-18T14:37:28.651Z,14.27
2022-12-18T14:40:11.082Z,11.77
2022-12-18T14:42:39.372Z,11.40
2022-12-18T14:45:42.086Z,13.07
2022-12-18T14:48:41.311Z,11.40
2022-12-18T14:51:32.297Z,11.60
2022-12-18T14:54:10.903Z,10.70
2022-12-18T14:56:50.171Z,10.13
2022-12-18T14:59:28.016Z,9.70
2022-12-18T15:02:20.099Z,10.80
2022-12-18T15:04:49.030Z,9.77
2022-12-18T15:07:24.952Z,10.40
2022-12-18T15:10:16.262Z,10.90
2022-12-18T15:13:23.839Z,9.23
2022-12-18T15:15:55.630Z,9.80
2022-12-18T15:18:42.573Z,9.60
2022-12-18T15:21:22.058Z,9.60
2022-12-18T15:23:53.947Z,9.77
2022-12-18T15:26:23.633Z,9.93
2022-12-18T15:28:59.575Z,10.27
2022-12-18T15:31:36.442Z,11.80
2022-12-18T15:34:21.393Z,10.77
2022-12-18T15:36:49.259Z,10.07
2022-12-18T15:39:16.980Z,10.57
2022-12-18T15:42:05.071Z,10.07
2022-12-18T15:44:33.512Z,10.20
2022-12-18T15:47:01.007Z,9.87
2022-12-18T15:49:29.190Z,11.57
2022-12-18T15:52:02.927Z,13.80
2022-12-18T15:54:48.934Z,11.27
2022-12-18T15:57:25.502Z,10.17
2022-12-18T15:59:59.296Z,11.07
2022-12-18T16:02:28.991Z,10.57
2022-12-18T16:04:58.430Z,10.60
2022-12-18T16:07:28.159Z,11.67
2022-12-18T16:09:59.075Z,11.03
2022-12-18T16:12:30.039Z,11.47
2022-12-18T16:14:57.615Z,12.17
2022-12-18T16:17:25.290Z,12.27
2022-12-18T16:19:52.946Z,11.73
2022-12-18T16:22:28.197Z,12.70
2022-12-18T16:24:58.345Z,13.67
2022-12-18T16:27:27.243Z,13.43
2022-12-18T16:29:54.957Z,11.73
2022-12-18T16:32:24.651Z,13.53
2022-12-18T16:34:52.452Z,15.03
2022-12-18T16:37:20.692Z,13.27
2022-12-18T16:39:48.924Z,13.17
2022-12-18T16:42:21.221Z,13.10
2022-12-18T16:44:50.707Z,13.23
2022-12-18T16:47:19.755Z,14.37
2022-12-18T16:49:47.625Z,14.80
2022-12-18T16:52:15.672Z,15.97
2022-12-18T16:54:43.875Z,17.07
2022-12-18T16:57:19.452Z,19.20
2022-12-18T16:59:49.847Z,20.70
2022-12-18T17:02:23.965Z,23.33
2022-12-18T17:04:57.669Z,24.50
2022-12-18T17:07:28.389Z,22.33
2022-12-18T17:09:57.980Z,20.13
2022-12-18T17:12:26.837Z,18.50
2022-12-18T17:14:54.921Z,17.73
2022-12-18T17:17:23.549Z,17.07
2022-12-18T17:19:53.211Z,15.93
2022-12-18T17:22:23.487Z,16.13
2022-12-18T17:24:51.383Z,14.90
2022-12-18T17:27:19.203Z,16.03
2022-12-18T17:29:48.791Z,15.00
2022-12-18T17:32:18.678Z,14.43
2022-12-18T17:34:46.519Z,14.37
2022-12-18T17:37:15.486Z,15.07
2022-12-18T17:39:43.256Z,14.93
2022-12-18T17:42:12.083Z,12.53
2022-12-18T17:44:43.899Z,15.07
2022-12-18T17:47:15.319Z,15.33
2022-12-18T17:49:43.701Z,14.33
2022-12-18T17:52:11.565Z,15.80
2022-12-18T17:54:42.072Z,14.37
2022-12-18T17:57:10.500Z,14.33
2022-12-18T17:59:38.869Z,15.20
2022-12-18T18:02:07.032Z,15.30
2022-12-18T18:04:34.954Z,14.93
2022-12-18T18:07:03.170Z,14.80
2022-12-18T18:09:32.321Z,14.37
2022-12-18T18:12:18.734Z,14.73
2022-12-18T18:14:46.385Z,14.53
2022-12-18T18:17:14.280Z,15.60
2022-12-18T18:19:42.233Z,14.90
2022-12-18T18:22:11.903Z,14.43
2022-12-18T18:24:52.409Z,14.53
2022-12-18T18:27:38.795Z,15.47
2022-12-18T18:30:13.084Z,15.50
2022-12-18T18:32:55.238Z,15.17
2022-12-18T18:35:52.770Z,15.20
2022-12-18T18:38:48.098Z,15.83
2022-12-18T18:41:18.063Z,15.40
2022-12-18T18:43:46.326Z,17.80
2022-12-18T18:46:17.347Z,16.60
2022-12-18T18:48:45.035Z,16.47
2022-12-18T18:51:20.856Z,19.00
2022-12-18T18:53:53.370Z,17.20
2022-12-18T18:59:15.215Z,17.83
2022-12-18T19:01:44.372Z,16.93
2022-12-18T19:04:12.087Z,16.17
2022-12-18T19:06:40.378Z,16.60
2022-12-18T19:09:08.798Z,17.63
2022-12-18T19:11:55.512Z,16.90
2022-12-18T19:14:24.582Z,17.60
2022-12-18T19:16:52.297Z,18.47
2022-12-18T19:19:21.150Z,17.30
2022-12-18T19:21:50.946Z,17.83
2022-12-18T19:24:22.402Z,19.00
2022-12-18T19:26:52.242Z,18.23
2022-12-18T19:29:23.046Z,18.53
2022-12-18T19:31:50.894Z,18.77
2022-12-18T19:34:19.419Z,17.23
2022-12-18T19:36:47.725Z,17.07
2022-12-18T19:39:19.434Z,17.93
2022-12-18T19:41:48.564Z,18.60
2022-12-18T19:44:19.160Z,15.43
2022-12-18T19:46:50.263Z,16.00
2022-12-18T19:49:21.774Z,17.50
2022-12-18T19:51:50.168Z,17.50
2022-12-18T19:54:18.675Z,19.03
2022-12-18T19:56:47.158Z,18.10
2022-12-18T19:59:15.408Z,18.30
2022-12-18T20:01:43.361Z,16.37
2022-12-18T20:04:11.134Z,16.90
2022-12-18T20:06:54.265Z,17.70
2022-12-18T20:09:22.909Z,17.60
2022-12-18T20:11:52.078Z,13.80
2022-12-18T20:14:22.711Z,17.20
2022-12-18T20:16:52.640Z,19.20
2022-12-18T20:19:22.537Z,17.00
2022-12-18T20:21:50.448Z,17.87
2022-12-18T20:24:18.139Z,18.33
2022-12-18T20:26:45.865Z,17.90
2022-12-18T20:29:13.675Z,16.90
2022-12-18T20:31:41.887Z,19.73
2022-12-18T20:34:16.046Z,18.70
2022-12-18T20:36:45.578Z,17.60
2022-12-18T20:39:14.422Z,16.90
2022-12-18T20:41:51.090Z,19.43
2022-12-18T20:44:25.361Z,16.90
2022-12-18T20:47:05.194Z,17.30
2022-12-18T20:49:37.554Z,18.13
2022-12-18T20:52:08.053Z,17.50
2022-12-18T20:54:35.642Z,17.33
2022-12-18T20:57:12.861Z,18.40
2022-12-18T20:59:47.962Z,18.67
2022-12-18T21:02:17.790Z,18.40
2022-12-18T21:04:45.760Z,18.97
2022-12-18T21:07:13.298Z,17.10
2022-12-18T21:09:42.198Z,18.10
2022-12-18T21:12:40.229Z,17.67
2022-12-18T21:15:15.431Z,19.70
2022-12-18T21:17:45.071Z,17.43
2022-12-18T21:20:18.019Z,18.53
2022-12-18T21:22:49.257Z,18.30
2022-12-18T21:25:17.143Z,19.77
2022-12-18T21:27:44.759Z,19.70
2022-12-18T21:30:15.067Z,19.03
2022-12-18T21:32:42.846Z,18.67
2022-12-18T21:35:13.647Z,19.00
2022-12-18T21:37:41.919Z,19.37
2022-12-18T21:40:11.129Z,20.53
2022-12-18T21:42:57.464Z,18.80
2022-12-18T21:45:25.483Z,19.27
2022-12-18T21:47:53.422Z,20.33
2022-12-18T21:50:21.196Z,18.07
2022-12-18T21:52:48.770Z,18.83
2022-12-18T21:55:16.450Z,21.17
2022-12-18T21:57:44.085Z,20.00
2022-12-18T22:00:18.379Z,20.43
2022-12-18T22:03:17.370Z,18.30
2022-12-18T22:05:36.884Z,19.60
2022-12-18T22:08:05.217Z,20.27
2022-12-18T22:10:33.180Z,18.77
2022-12-18T22:13:00.925Z,17.63
2022-12-18T22:15:28.619Z,19.50
2022-12-18T22:17:59.853Z,18.53
2022-12-18T22:20:30.017Z,19.30
2022-12-18T22:22:59.141Z,17.10
2022-12-18T22:25:31.019Z,19.60
2022-12-18T22:28:17.023Z,19.77
2022-12-18T22:30:44.655Z,18.60
2022-12-18T22:33:12.294Z,17.53
2022-12-18T22:35:40.095Z,19.30
2022-12-18T22:38:07.810Z,17.43
2022-12-18T22:40:36.712Z,17.77
2022-12-18T22:43:05.231Z,17.80
2022-12-18T22:45:34.126Z,18.10
2022-12-18T22:48:06.518Z,16.20
2022-12-18T22:50:34.310Z,17.70
2022-12-18T22:53:01.880Z,19.20
2022-12-18T22:55:29.442Z,18.87
2022-12-18T22:57:56.997Z,18.43
2022-12-18T23:00:24.901Z,18.00
2022-12-18T23:02:59.774Z,20.10
2022-12-18T23:05:32.024Z,17.47
2022-12-18T23:07:59.969Z,16.30
2022-12-18T23:10:28.475Z,16.97
2022-12-18T23:12:56.130Z,17.40
2022-12-18T23:15:28.366Z,16.20
2022-12-18T23:17:58.918Z,19.47
2022-12-18T23:20:28.901Z,18.30
2022-12-18T23:22:56.548Z,19.97
2022-12-18T23:25:24.414Z,18.70
2022-12-18T23:27:52.075Z,17.87
2022-12-18T23:30:19.847Z,15.50
2022-12-18T23:32:47.515Z,17.40
2022-12-18T23:35:16.150Z,16.87
2022-12-18T23:38:01.879Z,19.27
2022-12-18T23:40:30.595Z,19.43
2022-12-18T23:43:00.550Z,18.27
2022-12-18T23:45:28.556Z,17.40
2022-12-18T23:47:56.346Z,16.80
2022-12-18T23:50:29.152Z,19.67
2022-12-18T23:53:03.775Z,18.97
2022-12-18T23:55:42.207Z,19.30
2022-12-18T23:58:21.647Z,18.50
